Time;durP1;ratioP1;P1;durP2;ratioP2;P2;SDS_P1;SDS_P2;PMS_P1;PMS_P2;Temp;Humidity;BMP_temperature;BMP_pressure;BME280_temperature;BME280_humidity;BME280_pressure;Samples;Min_cycle;Max_cycle;Signal;HPM_P1;HPM_P2
2022/10/02 00:02:24;;;;;;;36.95;4.53;;;;;;;12.14;100.00;101242.31;5136978;27;20031;-82
2022/10/02 00:05:04;;;;;;;29.73;3.75;;;;;;;12.21;100.00;101268.41;5155289;27;20042;-82
2022/10/02 00:07:53;;;;;;;24.50;4.60;;;;;;;12.19;100.00;101250.63;5137123;27;20034;-82
2022/10/02 00:10:55;;;;;;;28.07;4.53;;;;;;;12.16;100.00;101253.78;5136635;27;20462;-82
2022/10/02 00:13:38;;;;;;;35.75;4.72;;;;;;;12.23;100.00;101255.41;5136235;27;20050;-82
2022/10/02 00:16:09;;;;;;;24.58;3.83;;;;;;;12.22;100.00;101266.53;5136538;27;20045;-82
2022/10/02 00:18:37;;;;;;;28.40;4.38;;;;;;;12.24;100.00;101267.16;5154817;27;20027;-82
2022/10/02 00:21:11;;;;;;;28.85;4.32;;;;;;;12.26;100.00;101265.88;5154995;27;20451;-82
2022/10/02 00:23:50;;;;;;;33.37;4.40;;;;;;;12.26;100.00;101265.03;5137006;27;20041;-82
2022/10/02 00:26:23;;;;;;;30.45;4.07;;;;;;;12.24;100.00;101278.84;5136602;27;20079;-82
2022/10/02 00:29:33;;;;;;;22.25;4.18;;;;;;;12.23;100.00;101279.06;5136640;27;20375;-82
2022/10/02 00:32:09;;;;;;;30.90;4.68;;;;;;;12.21;100.00;101275.72;5115158;27;20042;-82
2022/10/02 00:35:14;;;;;;;30.63;4.18;;;;;;;12.19;100.00;101275.13;5136591;27;20352;-82
2022/10/02 00:38:13;;;;;;;21.20;4.03;;;;;;;12.17;100.00;101286.22;5136298;27;20463;-82
2022/10/02 00:40:55;;;;;;;25.48;4.75;;;;;;;12.19;100.00;101286.00;5158268;27;20054;-82
2022/10/02 00:43:42;;;;;;;30.02;4.47;;;;;;;12.16;100.00;101284.53;5139965;27;20057;-83
2022/10/02 00:46:36;;;;;;;29.95;3.88;;;;;;;12.15;100.00;101285.59;5140213;27;20031;-82
2022/10/02 00:49:32;;;;;;;26.13;4.00;;;;;;;12.17;100.00;101279.94;5141830;27;20057;-82
2022/10/02 00:52:19;;;;;;;26.90;3.93;;;;;;;12.19;100.00;101283.28;5140681;27;20019;-82
2022/10/02 00:54:55;;;;;;;40.40;4.72;;;;;;;12.17;100.00;101280.78;5140268;27;20027;-83
2022/10/02 00:57:37;;;;;;;30.50;3.95;;;;;;;12.13;100.00;101282.25;5139693;27;20045;-82
2022/10/02 01:00:14;;;;;;;33.10;4.13;;;;;;;12.13;100.00;101279.53;5139665;27;20030;-82
2022/10/02 01:03:23;;;;;;;31.08;4.45;;;;;;;12.16;100.00;101279.09;5139916;27;20381;-82
2022/10/02 01:05:51;;;;;;;27.33;3.87;;;;;;;12.18;100.00;101287.03;5073805;28;20044;-83
2022/10/02 01:08:17;;;;;;;23.92;3.80;;;;;;;12.18;100.00;101290.59;5123107;27;20039;-82
2022/10/02 01:10:42;;;;;;;26.33;3.50;;;;;;;12.23;100.00;101292.69;5122379;27;20037;-82
2022/10/02 01:13:08;;;;;;;36.28;4.85;;;;;;;12.27;100.00;101292.03;5139509;27;20033;-83
2022/10/02 01:15:43;;;;;;;34.33;4.57;;;;;;;12.31;100.00;101289.69;5139646;27;20023;-82
2022/10/02 01:18:12;;;;;;;32.85;4.72;;;;;;;12.36;100.00;101289.91;5139579;27;20087;-82
2022/10/02 01:20:43;;;;;;;35.58;4.93;;;;;;;12.37;100.00;101291.56;5140070;27;20035;-82
2022/10/02 01:23:27;;;;;;;26.85;3.35;;;;;;;12.37;100.00;101283.41;5139549;27;20084;-82
2022/10/02 01:25:53;;;;;;;28.33;3.85;;;;;;;12.38;100.00;101278.78;5139729;27;20041;-82
2022/10/02 01:28:20;;;;;;;35.93;3.93;;;;;;;12.39;100.00;101277.75;5121566;27;20022;-82
2022/10/02 01:30:50;;;;;;;36.25;4.65;;;;;;;12.37;100.00;101275.25;5138678;27;20026;-82
2022/10/02 01:33:16;;;;;;;34.63;4.38;;;;;;;12.41;100.00;101272.91;5157572;27;20105;-82
2022/10/02 01:35:42;;;;;;;30.23;4.15;;;;;;;12.41;100.00;101276.47;5157532;27;20030;-83
2022/10/02 01:38:11;;;;;;;30.10;4.23;;;;;;;12.42;100.00;101271.88;5138858;27;20061;-82
2022/10/02 01:40:38;;;;;;;39.92;6.10;;;;;;;12.40;100.00;101280.25;5138813;27;20031;-82
2022/10/02 01:43:08;;;;;;;39.55;5.25;;;;;;;12.43;100.00;101287.13;5157100;27;20439;-82
2022/10/02 01:45:46;;;;;;;44.57;4.53;;;;;;;12.45;100.00;101285.88;5139589;27;20034;-82
2022/10/02 01:48:37;;;;;;;28.15;4.57;;;;;;;12.43;100.00;101277.09;5139609;27;20323;-82
2022/10/02 01:51:28;;;;;;;33.72;4.00;;;;;;;12.48;100.00;101290.06;5138281;27;20030;-82
2022/10/02 01:54:23;;;;;;;32.28;4.07;;;;;;;12.46;100.00;101290.28;5158070;27;20058;-82
2022/10/02 01:56:58;;;;;;;36.78;4.03;;;;;;;12.48;100.00;101286.50;5131108;27;20175;-82
2022/10/02 01:59:45;;;;;;;39.00;5.40;;;;;;;12.49;100.00;101280.84;5156698;27;20034;-82
2022/10/02 02:02:22;;;;;;;36.13;4.70;;;;;;;12.50;100.00;101285.22;5138694;27;20062;-82
2022/10/02 02:04:56;;;;;;;31.23;4.00;;;;;;;12.52;100.00;101291.28;5157019;27;20466;-82
2022/10/02 02:07:28;;;;;;;28.17;4.72;;;;;;;12.55;100.00;101288.13;5138411;27;20031;-82
2022/10/02 02:10:03;;;;;;;41.67;4.57;;;;;;;12.56;100.00;101283.50;5156834;27;20031;-83
2022/10/02 02:12:42;;;;;;;32.17;4.30;;;;;;;12.57;100.00;101287.91;5157447;27;20033;-82
2022/10/02 02:15:30;;;;;;;27.63;4.82;;;;;;;12.55;100.00;101288.13;5138389;27;20057;-82
2022/10/02 02:18:03;;;;;;;33.45;4.72;;;;;;;12.56;100.00;101286.22;5156957;27;20023;-82
2022/10/02 02:20:34;;;;;;;39.25;4.90;;;;;;;12.62;100.00;101280.75;5138453;27;20019;-82
2022/10/02 02:23:09;;;;;;;32.65;4.95;;;;;;;12.69;100.00;101294.31;5138304;27;20458;-82
2022/10/02 02:25:39;;;;;;;29.43;3.83;;;;;;;12.75;100.00;101292.63;5137930;27;20026;-82
2022/10/02 02:28:11;;;;;;;28.15;4.75;;;;;;;12.82;100.00;101296.13;5138123;27;20023;-83
2022/10/02 02:30:42;;;;;;;23.73;4.15;;;;;;;12.78;100.00;101300.34;5138002;27;20037;-83
2022/10/02 02:33:17;;;;;;;32.00;4.00;;;;;;;12.67;100.00;101296.44;5137630;27;20106;-83
2022/10/02 02:35:47;;;;;;;29.88;4.45;;;;;;;12.59;100.00;101307.56;5138070;27;20060;-83
2022/10/02 02:38:24;;;;;;;27.37;5.07;;;;;;;12.54;100.00;101299.25;5137405;27;20034;-82
2022/10/02 02:40:51;;;;;;;37.60;4.93;;;;;;;12.52;100.00;101294.00;5156619;27;20019;-82
2022/10/02 02:43:28;;;;;;;30.13;4.65;;;;;;;12.45;100.00;101288.59;5137535;27;20030;-82
2022/10/02 02:45:56;;;;;;;20.52;4.05;;;;;;;12.35;100.00;101292.84;5137621;27;20023;-82
2022/10/02 02:48:27;;;;;;;17.50;3.20;;;;;;;12.22;100.00;101291.84;5137930;27;20374;-82
2022/10/02 02:51:01;;;;;;;22.67;4.00;;;;;;;12.14;100.00;101299.41;5155816;27;20401;-82
2022/10/02 02:53:50;;;;;;;16.90;3.30;;;;;;;12.04;100.00;101295.25;5156018;27;20416;-82
2022/10/02 02:56:18;;;;;;;13.98;2.83;;;;;;;11.93;100.00;101294.03;5135894;27;20087;-82
2022/10/02 02:58:52;;;;;;;14.55;2.63;;;;;;;11.84;100.00;101306.16;5137193;27;20023;-81
2022/10/02 03:01:17;;;;;;;15.60;2.42;;;;;;;11.77;100.00;101311.59;5137469;27;20040;-84
2022/10/02 03:03:43;;;;;;;15.97;2.10;;;;;;;11.69;100.00;101290.09;5119451;27;20055;-84
2022/10/02 03:06:14;;;;;;;14.60;2.70;;;;;;;11.62;100.00;101300.13;5119892;27;20054;-84
2022/10/02 03:08:41;;;;;;;12.57;2.10;;;;;;;11.53;100.00;101301.38;5156051;27;20026;-84
2022/10/02 03:11:34;;;;;;;13.40;2.40;;;;;;;11.49;100.00;101313.75;5138008;27;20098;-84
2022/10/02 03:14:30;;;;;;;11.20;1.85;;;;;;;11.43;100.00;101304.53;5138011;27;20122;-84
2022/10/02 03:16:59;;;;;;;9.53;1.80;;;;;;;11.39;100.00;101298.69;5155623;27;20034;-83
2022/10/02 03:19:27;;;;;;;17.05;2.13;;;;;;;11.35;100.00;101305.59;5136982;27;20068;-84
2022/10/02 03:22:21;;;;;;;14.02;2.50;;;;;;;11.33;100.00;101309.56;5155597;27;20026;-84
2022/10/02 03:24:46;;;;;;;17.02;2.28;;;;;;;11.31;100.00;101306.19;5135995;27;20041;-84
2022/10/02 03:27:18;;;;;;;12.43;2.50;;;;;;;11.31;100.00;101309.78;5136631;27;20030;-84
2022/10/02 03:30:07;;;;;;;9.98;2.70;;;;;;;11.31;100.00;101308.91;5137158;27;20054;-84
2022/10/02 03:32:34;;;;;;;14.00;2.55;;;;;;;11.32;100.00;101300.56;5155153;27;20034;-83
2022/10/02 03:35:01;;;;;;;9.90;2.70;;;;;;;11.30;100.00;101302.66;5137134;27;20481;-83
2022/10/02 03:37:27;;;;;;;15.20;3.80;;;;;;;11.30;100.00;101305.38;5120032;27;20042;-83
2022/10/02 03:39:57;;;;;;;14.57;3.25;;;;;;;11.33;100.00;101309.56;5119687;27;20034;-83
2022/10/02 03:42:25;;;;;;;14.25;3.20;;;;;;;11.31;100.00;101308.91;5155409;27;20030;-83
2022/10/02 03:44:51;;;;;;;16.60;3.67;;;;;;;11.29;100.00;101311.00;5137047;27;20416;-83
2022/10/02 03:47:16;;;;;;;13.97;3.70;;;;;;;11.31;100.00;101314.34;5136775;27;20031;-83
2022/10/02 03:49:42;;;;;;;12.17;3.87;;;;;;;11.33;100.00;101334.00;5119635;27;20542;-83
2022/10/02 03:52:14;;;;;;;16.20;4.10;;;;;;;11.34;100.00;101336.50;5136848;27;20048;-83
2022/10/02 03:54:40;;;;;;;16.90;4.15;;;;;;;11.37;100.00;101335.28;5137102;27;20415;-83
2022/10/02 03:57:07;;;;;;;19.20;5.63;;;;;;;11.41;100.00;101323.78;5137349;27;20026;-84
2022/10/02 03:59:45;;;;;;;18.73;7.35;;;;;;;11.45;100.00;101326.91;5136451;27;20026;-83
2022/10/02 04:02:37;;;;;;;29.15;7.72;;;;;;;11.52;100.00;101330.44;5136819;27;20395;-84
2022/10/02 04:05:09;;;;;;;26.20;9.20;;;;;;;11.59;100.00;101325.03;5099757;27;20038;-83
2022/10/02 04:07:42;;;;;;;36.37;12.73;;;;;;;11.66;100.00;101322.28;5136509;27;20031;-83
2022/10/02 04:10:28;;;;;;;30.85;11.88;;;;;;;11.71;100.00;101327.94;5137061;27;20052;-84
2022/10/02 04:13:17;;;;;;;36.92;11.88;;;;;;;11.72;100.00;101319.56;5137392;27;20411;-83
2022/10/02 04:16:09;;;;;;;34.55;11.85;;;;;;;11.74;100.00;101317.47;5139625;27;20043;-83
2022/10/02 04:18:54;;;;;;;28.83;10.93;;;;;;;11.73;100.00;101323.94;5141046;27;20117;-84
2022/10/02 04:21:34;;;;;;;37.17;10.57;;;;;;;11.71;100.00;101325.22;5140753;27;20030;-83
2022/10/02 04:24:14;;;;;;;28.13;10.13;;;;;;;11.71;100.00;101323.31;5140673;27;20071;-83
2022/10/02 04:26:51;;;;;;;22.33;9.85;;;;;;;11.70;100.00;101327.06;5140625;27;20027;-84
2022/10/02 04:29:30;;;;;;;27.27;11.05;;;;;;;11.75;100.00;101330.03;5139859;27;20367;-84
2022/10/02 04:32:10;;;;;;;26.63;11.05;;;;;;;11.78;100.00;101328.78;5140633;27;20031;-84
2022/10/02 04:34:36;;;;;;;34.07;11.87;;;;;;;11.80;100.00;101320.41;5158532;27;20092;-84
2022/10/02 04:37:07;;;;;;;35.67;13.77;;;;;;;11.89;100.00;101319.13;5122857;27;20019;-83
2022/10/02 04:39:45;;;;;;;36.38;14.20;;;;;;;11.94;100.00;101322.03;5140694;27;20030;-83
2022/10/02 04:42:29;;;;;;;44.87;16.90;;;;;;;11.98;100.00;101336.06;5139669;27;20133;-83
2022/10/02 04:45:33;;;;;;;50.45;17.65;;;;;;;12.01;100.00;101341.91;5139645;27;20530;-83
2022/10/02 04:48:08;;;;;;;51.78;18.85;;;;;;;12.06;100.00;101347.56;5139140;27;20039;-84
2022/10/02 04:50:54;;;;;;;50.03;19.70;;;;;;;12.13;100.00;101349.41;5140417;27;20041;-84
2022/10/02 04:53:53;;;;;;;53.10;21.33;;;;;;;12.15;100.00;101347.31;5139524;27;20027;-84
2022/10/02 04:56:19;;;;;;;50.40;21.60;;;;;;;12.21;100.00;101350.03;5140383;27;20035;-83
2022/10/02 04:59:10;;;;;;;55.00;19.20;;;;;;;12.24;100.00;101337.88;5139609;27;20545;-83
2022/10/02 05:02:14;;;;;;;57.88;17.98;;;;;;;12.32;100.00;101353.13;5139955;27;20484;-83
2022/10/02 05:04:53;;;;;;;63.08;20.50;;;;;;;12.40;100.00;101353.72;5139639;27;20050;-83
2022/10/02 05:08:00;;;;;;;65.13;21.45;;;;;;;12.44;100.00;101362.28;5139218;27;20034;-83
2022/10/02 05:11:03;;;;;;;63.97;21.80;;;;;;;12.43;100.00;101361.47;5148407;27;20042;-83
2022/10/02 05:13:51;;;;;;;62.90;23.03;;;;;;;12.45;100.00;101363.97;5139388;27;20175;-83
2022/10/02 05:16:16;;;;;;;61.03;22.35;;;;;;;12.45;100.00;101361.25;5139674;27;20066;-83
2022/10/02 05:18:59;;;;;;;59.23;20.93;;;;;;;12.43;100.00;101364.19;5140069;27;20065;-83
2022/10/02 05:22:00;;;;;;;68.20;22.75;;;;;;;12.42;100.00;101357.06;5139281;27;20018;-83
2022/10/02 05:24:50;;;;;;;67.30;21.63;;;;;;;12.39;100.00;101362.13;5157521;27;20075;-83
2022/10/02 05:27:47;;;;;;;60.92;21.42;;;;;;;12.37;100.00;101373.22;5158064;27;20034;-84
2022/10/02 05:30:15;;;;;;;66.82;21.83;;;;;;;12.38;100.00;101383.03;5139306;27;20603;-83
2022/10/02 05:32:52;;;;;;;64.67;19.07;;;;;;;12.38;100.00;101377.59;5139305;27;20031;-83
2022/10/02 05:35:36;;;;;;;61.75;17.23;;;;;;;12.37;100.00;101375.94;5138980;27;20031;-83
2022/10/02 05:38:19;;;;;;;50.78;16.90;;;;;;;12.38;100.00;101377.59;5157707;27;20023;-83
2022/10/02 05:41:02;;;;;;;53.22;15.77;;;;;;;12.39;100.00;101384.72;5139178;27;20035;-83
2022/10/02 05:43:37;;;;;;;60.30;15.63;;;;;;;12.43;100.00;101385.09;5157762;27;20015;-83
2022/10/02 05:46:11;;;;;;;58.80;14.43;;;;;;;12.43;100.00;101390.53;5139123;27;20035;-84
2022/10/02 05:48:44;;;;;;;51.67;13.15;;;;;;;12.43;100.00;101385.09;5138745;27;20019;-83
2022/10/02 05:51:22;;;;;;;58.35;13.70;;;;;;;12.42;100.00;101381.56;5138408;27;20023;-84
2022/10/02 05:54:00;;;;;;;53.63;11.90;;;;;;;12.44;100.00;101390.31;5138913;27;20073;-83
2022/10/02 05:56:31;;;;;;;48.65;10.13;;;;;;;12.47;100.00;101389.06;5138915;27;20470;-83
2022/10/02 05:58:57;;;;;;;44.53;9.50;;;;;;;12.48;100.00;101388.03;5138129;27;20034;-83
2022/10/02 06:01:32;;;;;;;53.47;11.73;;;;;;;12.50;100.00;101385.09;5138787;27;20031;-83
2022/10/02 06:04:13;;;;;;;46.33;9.47;;;;;;;12.53;100.00;101381.94;5138105;27;20291;-84
2022/10/02 06:06:43;;;;;;;49.65;9.02;;;;;;;12.53;100.00;101385.47;5156930;27;20378;-86
2022/10/02 06:09:23;;;;;;;52.50;9.18;;;;;;;12.54;100.00;101392.59;5138298;27;20023;-87
2022/10/02 06:12:00;;;;;;;54.70;9.50;;;;;;;12.55;100.00;101399.72;5138621;27;20531;-86
2022/10/02 06:14:38;;;;;;;49.92;8.68;;;;;;;12.58;100.00;101401.19;5138266;27;20019;-83
2022/10/02 06:17:10;;;;;;;46.93;8.70;;;;;;;12.57;100.00;101410.41;5138433;27;20027;-84
2022/10/02 06:19:38;;;;;;;45.65;8.38;;;;;;;12.59;100.00;101408.28;5138191;27;20023;-84
2022/10/02 06:22:12;;;;;;;57.50;9.27;;;;;;;12.60;100.00;101416.22;5138126;27;20137;-83
2022/10/02 06:24:50;;;;;;;58.63;10.20;;;;;;;12.61;100.00;101412.47;5138282;27;20339;-84
2022/10/02 06:27:53;;;;;;;41.35;8.25;;;;;;;12.58;100.00;101410.19;5138190;27;20023;-84
2022/10/02 06:30:20;;;;;;;49.93;7.67;;;;;;;12.61;100.00;101414.38;5137528;27;20114;-84
2022/10/02 06:33:18;;;;;;;47.20;7.63;;;;;;;12.60;100.00;101418.97;5138068;27;20033;-83
2022/10/02 06:35:53;;;;;;;46.42;7.72;;;;;;;12.64;100.00;101417.47;5092493;27;20067;-84
2022/10/02 06:38:31;;;;;;;51.50;8.50;;;;;;;12.64;100.00;101417.47;5155232;27;20054;-84
2022/10/02 06:41:24;;;;;;;38.40;8.65;;;;;;;12.68;100.00;101425.22;5137969;27;20030;-84
2022/10/02 06:44:03;;;;;;;44.27;9.07;;;;;;;12.70;100.00;101426.69;5137953;27;20027;-84
2022/10/02 06:46:51;;;;;;;44.47;8.30;;;;;;;12.68;100.00;101434.25;5137437;27;20039;-84
2022/10/02 06:49:44;;;;;;;39.28;9.05;;;;;;;12.70;100.00;101436.75;5137551;27;20035;-84
2022/10/02 06:52:19;;;;;;;40.72;9.00;;;;;;;12.70;100.00;101440.28;5155742;27;20391;-84
2022/10/02 06:54:47;;;;;;;35.30;9.80;;;;;;;12.71;100.00;101449.28;5137117;27;20467;-84
2022/10/02 06:57:28;;;;;;;51.97;10.70;;;;;;;12.72;100.00;101445.53;5137745;27;20106;-84
2022/10/02 07:00:11;;;;;;;39.13;9.85;;;;;;;12.73;100.00;101456.19;5138248;27;20390;-84
2022/10/02 07:03:05;;;;;;;39.88;9.65;;;;;;;12.75;100.00;101464.97;5137087;27;20139;-85
2022/10/02 07:06:08;;;;;;;47.25;10.07;;;;;;;12.74;100.00;101466.06;5133366;27;20047;-84
2022/10/02 07:09:16;;;;;;;42.78;10.20;;;;;;;12.71;100.00;101463.75;5133518;27;20125;-84
2022/10/02 07:12:19;;;;;;;36.43;10.63;;;;;;;12.75;100.00;101467.69;5135010;27;20070;-86
2022/10/02 07:14:53;;;;;;;42.50;10.65;;;;;;;12.81;100.00;101476.91;5135301;27;20027;-84
2022/10/02 07:17:48;;;;;;;40.55;11.98;;;;;;;12.81;100.00;101474.19;5133797;27;20374;-84
2022/10/02 07:20:30;;;;;;;43.67;14.70;;;;;;;12.82;100.00;101462.25;5134883;27;20067;-85
2022/10/02 07:23:12;;;;;;;41.95;14.63;;;;;;;12.80;100.00;101467.91;5133342;27;20113;-84
2022/10/02 07:26:21;;;;;;;42.73;14.13;;;;;;;12.79;100.00;101468.94;5134405;27;20031;-84
2022/10/02 07:29:12;;;;;;;41.60;14.57;;;;;;;12.84;100.00;101473.75;5054295;28;20029;-84
2022/10/02 07:32:01;;;;;;;43.13;15.13;;;;;;;12.86;100.00;101470.81;5133316;27;20046;-84
2022/10/02 07:34:52;;;;;;;40.90;15.55;;;;;;;12.82;100.00;101475.88;5133776;27;20072;-84
2022/10/02 07:37:21;;;;;;;38.53;15.57;;;;;;;12.84;100.00;101483.81;5133458;28;20057;-84
2022/10/02 07:40:05;;;;;;;36.67;14.43;;;;;;;12.84;100.00;101472.91;5133862;28;20340;-84
2022/10/02 07:42:46;;;;;;;40.42;14.18;;;;;;;12.86;100.00;101481.69;5133306;28;20030;-84
2022/10/02 07:45:23;;;;;;;33.08;13.43;;;;;;;12.86;100.00;101474.38;5134928;27;20027;-84
2022/10/02 07:47:56;;;;;;;34.70;13.82;;;;;;;12.93;100.00;101477.06;5132956;27;20035;-84
2022/10/02 07:50:34;;;;;;;32.78;12.68;;;;;;;12.94;100.00;101492.38;5137780;27;20030;-84
2022/10/02 07:53:29;;;;;;;35.87;12.73;;;;;;;12.93;100.00;101488.81;5137498;27;20069;-84
2022/10/02 07:55:56;;;;;;;37.53;13.07;;;;;;;13.03;100.00;101492.97;5125248;27;20042;-84
2022/10/02 07:58:35;;;;;;;34.28;12.25;;;;;;;13.01;100.00;101495.91;5120594;27;20102;-84
2022/10/02 08:01:09;;;;;;;32.17;12.15;;;;;;;13.10;100.00;101493.78;5138487;27;20031;-84
2022/10/02 08:03:42;;;;;;;28.42;12.38;;;;;;;13.13;100.00;101496.88;5139820;27;20038;-84
2022/10/02 08:06:08;;;;;;;35.77;12.30;;;;;;;13.23;100.00;101507.34;5140793;27;20031;-84
2022/10/02 08:08:50;;;;;;;32.72;12.38;;;;;;;13.25;100.00;101497.03;5140140;27;20043;-84
2022/10/02 08:11:34;;;;;;;33.53;12.00;;;;;;;13.31;100.00;101515.25;5140612;27;20026;-84
2022/10/02 08:14:21;;;;;;;30.10;12.70;;;;;;;13.36;100.00;101521.97;5140803;27;20167;-84
2022/10/02 08:16:50;;;;;;;34.53;12.43;;;;;;;13.35;100.00;101515.69;5158633;27;20023;-84
2022/10/02 08:19:31;;;;;;;30.48;12.68;;;;;;;13.38;100.00;101523.44;5140259;27;20442;-83
2022/10/02 08:22:09;;;;;;;30.60;12.63;;;;;;;13.44;100.00;101533.47;5140712;27;20035;-84
2022/10/02 08:24:46;;;;;;;35.30;12.93;;;;;;;13.47;100.00;101530.28;5140699;27;20370;-84
2022/10/02 08:27:17;;;;;;;35.05;14.48;;;;;;;13.46;100.00;101531.38;5140235;27;20035;-84
2022/10/02 08:30:05;;;;;;;26.47;13.03;;;;;;;13.49;100.00;101536.38;5140117;27;20034;-84
2022/10/02 08:32:35;;;;;;;25.42;11.70;;;;;;;13.54;100.00;101538.44;5140542;27;20019;-84
2022/10/02 08:35:04;;;;;;;27.77;12.68;;;;;;;13.58;100.00;101538.84;5140090;27;20453;-84
2022/10/02 08:37:48;;;;;;;26.50;12.20;;;;;;;13.60;100.00;101539.47;5123055;27;20030;-84
2022/10/02 08:40:35;;;;;;;25.58;11.27;;;;;;;13.63;100.00;101541.75;5140318;27;20497;-84
2022/10/02 08:43:18;;;;;;;22.87;10.40;;;;;;;13.65;100.00;101558.72;5158567;27;20041;-84
2022/10/02 08:46:03;;;;;;;25.52;10.65;;;;;;;13.69;100.00;101555.34;5140523;27;20066;-84
2022/10/02 08:49:05;;;;;;;21.83;10.57;;;;;;;13.76;100.00;101558.03;5140689;27;20087;-84
2022/10/02 08:51:55;;;;;;;21.35;9.23;;;;;;;13.79;100.00;101562.19;5139571;27;20467;-84
2022/10/02 08:54:52;;;;;;;23.10;8.98;;;;;;;13.88;100.00;101565.50;5139992;27;20038;-84
2022/10/02 08:57:36;;;;;;;23.20;9.50;;;;;;;13.93;100.00;101561.06;5139782;27;20078;-84
2022/10/02 09:00:13;;;;;;;20.45;8.80;;;;;;;13.95;100.00;101549.91;5138586;27;20026;-84
2022/10/02 09:03:01;;;;;;;22.52;8.95;;;;;;;14.16;100.00;101570.56;5139898;27;20091;-84
2022/10/02 09:05:54;;;;;;;22.42;8.43;;;;;;;14.33;100.00;101568.94;5139082;27;20051;-84
2022/10/02 09:08:56;;;;;;;25.30;8.10;;;;;;;14.39;100.00;101573.53;5139826;27;20031;-84
2022/10/02 09:11:49;;;;;;;20.70;7.27;;;;;;;14.44;100.00;101575.59;5140423;27;20354;-84
2022/10/02 09:14:27;;;;;;;20.38;7.78;;;;;;;14.56;100.00;101583.88;5139364;27;20041;-84
2022/10/02 09:17:20;;;;;;;17.83;5.97;;;;;;;14.59;100.00;101577.97;5158277;27;20030;-84
2022/10/02 09:20:18;;;;;;;17.92;6.85;;;;;;;14.70;100.00;101582.72;5138898;27;20083;-83
2022/10/02 09:23:20;;;;;;;19.38;6.60;;;;;;;14.88;100.00;101584.66;5158308;27;20079;-84
2022/10/02 09:25:55;;;;;;;21.27;7.07;;;;;;;15.12;100.00;101573.88;5139476;27;20110;-84
2022/10/02 09:28:32;;;;;;;16.23;5.88;;;;;;;15.33;100.00;101574.47;5139342;27;20027;-84
2022/10/02 09:31:17;;;;;;;18.35;6.75;;;;;;;15.38;100.00;101572.72;5157703;27;20038;-84
2022/10/02 09:34:13;;;;;;;15.52;6.25;;;;;;;15.37;100.00;101578.41;5157572;27;20030;-84
2022/10/02 09:36:50;;;;;;;18.80;6.18;;;;;;;15.26;100.00;101580.84;5139244;27;20046;-84
2022/10/02 09:39:44;;;;;;;20.27;5.83;;;;;;;15.35;100.00;101580.53;5139393;27;20084;-84
2022/10/02 09:42:32;;;;;;;19.02;5.63;;;;;;;15.39;100.00;101582.56;5138838;27;20033;-84
2022/10/02 09:45:20;;;;;;;17.27;5.10;;;;;;;15.53;100.00;101587.88;5158030;27;20056;-84
2022/10/02 09:48:21;;;;;;;25.13;6.13;;;;;;;15.68;100.00;101596.50;5138763;27;20031;-85
2022/10/02 09:51:09;;;;;;;15.00;5.07;;;;;;;15.72;100.00;101595.00;5152802;27;20039;-84
2022/10/02 09:54:08;;;;;;;19.37;5.83;;;;;;;15.52;100.00;101597.97;5138888;27;20068;-85
2022/10/02 09:56:52;;;;;;;17.23;5.20;;;;;;;15.66;100.00;101597.81;5138787;27;20075;-84
2022/10/02 09:59:49;;;;;;;13.88;5.00;;;;;;;15.63;100.00;101609.22;5138333;27;20068;-84
2022/10/02 10:02:39;;;;;;;17.58;5.22;;;;;;;15.60;100.00;101610.50;5138259;27;20027;-84
2022/10/02 10:05:23;;;;;;;19.00;5.60;;;;;;;15.71;100.00;101607.00;5138656;27;20478;-83
2022/10/02 10:08:14;;;;;;;24.80;5.77;;;;;;;16.04;100.00;101610.34;5138048;27;20034;-83
2022/10/02 10:10:42;;;;;;;17.50;4.85;;;;;;;16.46;99.86;101605.69;5156914;27;20027;-82
2022/10/02 10:13:45;;;;;;;17.63;5.30;;;;;;;16.64;99.17;101615.69;5137861;27;20057;-83
2022/10/02 10:16:38;;;;;;;19.00;5.28;;;;;;;16.90;98.50;101602.63;5137944;27;20035;-83
2022/10/02 10:19:44;;;;;;;17.52;4.85;;;;;;;17.08;95.41;101615.38;5137929;27;20035;-83
2022/10/02 10:22:34;;;;;;;15.53;4.80;;;;;;;17.00;94.81;101621.22;5138249;27;20026;-83
2022/10/02 10:25:47;;;;;;;16.17;4.50;;;;;;;16.83;95.67;101627.38;5137951;27;20030;-84
2022/10/02 10:28:36;;;;;;;14.98;5.20;;;;;;;16.56;95.86;101628.91;5154831;27;20035;-85
2022/10/02 10:31:22;;;;;;;20.33;4.85;;;;;;;16.53;94.68;101629.38;5156449;27;20027;-84
2022/10/02 10:34:25;;;;;;;16.42;4.43;;;;;;;16.48;91.96;101643.78;5137748;27;20042;-83
2022/10/02 10:40:20;;;;;;;18.30;4.13;;;;;;;16.42;91.95;101652.97;5146023;27;20049;-83
2022/10/02 10:42:51;;;;;;;18.08;4.00;;;;;;;16.46;93.95;101662.34;5137335;27;20022;-83
2022/10/02 10:45:35;;;;;;;11.73;3.53;;;;;;;16.48;93.70;101649.28;5137485;27;20035;-83
2022/10/02 10:48:26;;;;;;;14.20;3.93;;;;;;;16.61;92.90;101661.94;5156427;27;20050;-84
2022/10/02 10:51:01;;;;;;;16.67;3.75;;;;;;;16.71;93.06;101659.44;5132839;27;20038;-84
2022/10/02 10:53:50;;;;;;;15.77;3.88;;;;;;;16.76;93.15;101670.50;5137829;27;20039;-84
2022/10/02 10:56:35;;;;;;;18.80;4.13;;;;;;;16.77;92.84;101660.38;5137823;27;20030;-84
2022/10/02 10:59:22;;;;;;;23.30;4.10;;;;;;;16.90;92.36;101651.13;5136788;27;20038;-84
2022/10/02 11:02:12;;;;;;;17.07;3.47;;;;;;;16.77;89.25;101657.63;5155876;27;20455;-84
2022/10/02 11:05:26;;;;;;;15.70;4.00;;;;;;;16.95;91.09;101651.25;5136821;27;20055;-84
2022/10/02 11:08:05;;;;;;;19.80;4.07;;;;;;;17.21;90.01;101647.16;5130398;27;20046;-83
2022/10/02 11:10:33;;;;;;;15.15;4.05;;;;;;;16.82;87.26;101649.53;5137354;27;20470;-84
2022/10/02 11:13:06;;;;;;;12.00;3.88;;;;;;;16.88;89.56;101648.63;5137096;27;20031;-84
2022/10/02 11:15:58;;;;;;;18.13;3.90;;;;;;;17.31;88.57;101655.63;5136659;27;20069;-84
2022/10/02 11:18:35;;;;;;;18.20;3.83;;;;;;;17.34;87.36;101657.06;5137240;27;20493;-84
2022/10/02 11:21:17;;;;;;;15.38;3.50;;;;;;;17.34;86.39;101659.78;5137575;27;20027;-84
2022/10/02 11:24:03;;;;;;;14.75;3.35;;;;;;;17.60;84.82;101661.19;5155458;27;20025;-84
2022/10/02 11:26:43;;;;;;;13.35;3.92;;;;;;;17.53;82.43;101664.03;5136935;27;20039;-84
2022/10/02 11:29:21;;;;;;;14.73;3.90;;;;;;;17.43;85.17;101672.06;5137178;27;20454;-84
2022/10/02 11:32:05;;;;;;;14.40;3.45;;;;;;;17.14;87.22;101677.47;5136768;27;20151;-84
2022/10/02 11:34:52;;;;;;;16.40;3.58;;;;;;;16.93;86.77;101673.44;5136771;27;20038;-84
2022/10/02 11:37:54;;;;;;;12.38;3.20;;;;;;;16.61;88.45;101679.19;5155881;27;20034;-84
2022/10/02 11:40:53;;;;;;;14.07;3.47;;;;;;;16.55;89.15;101680.13;5137319;27;20031;-84
2022/10/02 11:43:37;;;;;;;10.67;3.30;;;;;;;16.45;87.01;101677.97;5137352;27;20026;-84
2022/10/02 11:46:32;;;;;;;18.45;3.90;;;;;;;16.56;89.26;101689.19;5136671;27;20050;-84
2022/10/02 11:49:35;;;;;;;18.30;4.25;;;;;;;17.16;89.21;101688.19;5136725;27;20151;-84
2022/10/02 11:52:17;;;;;;;16.08;3.80;;;;;;;18.70;81.78;101668.41;5137428;27;20031;-84
2022/10/02 11:55:03;;;;;;;15.18;4.28;;;;;;;19.96;79.00;101671.53;5136980;27;20031;-84
2022/10/02 11:58:06;;;;;;;16.80;4.30;;;;;;;21.16;73.61;101670.41;5137012;27;20031;-84
2022/10/02 12:01:07;;;;;;;12.82;4.20;;;;;;;21.44;69.58;101676.63;5155321;27;20030;-84
2022/10/02 12:03:43;;;;;;;16.70;4.40;;;;;;;20.12;73.68;101678.91;5154949;27;20052;-84
2022/10/02 12:06:24;;;;;;;19.90;4.65;;;;;;;19.18;77.81;101675.25;5155469;27;20029;-84
2022/10/02 12:09:27;;;;;;;18.27;5.82;;;;;;;18.44;83.35;101681.75;5136904;27;20031;-84
2022/10/02 12:11:59;;;;;;;18.63;5.53;;;;;;;17.78;88.44;101684.03;5136772;27;20030;-84
2022/10/02 12:14:36;;;;;;;18.63;4.88;;;;;;;17.01;87.20;101697.72;5137272;27;20038;-84
2022/10/02 12:17:54;;;;;;;20.55;5.15;;;;;;;16.47;92.43;101694.97;5136499;27;20033;-83
2022/10/02 12:27:08;;;;;;;24.03;7.00;;;;;;;15.44;100.00;101705.78;5155571;27;20045;-83